OYCAM EKSV-EDXW
Flight info
| Callsign | OYCAM |
|---|---|
| Flight time | 0h 31m |
| Altitude | 20000 |
| Route | LASRO N607 BAVTA/N0266F190 P992 ASMUS |
| Aircraft | SF50/L-SDGRWY/L |
Departure
| Time | 2026-04-20 13:28 |
|---|---|
| Airport | Skive Airport (EKSV) |
Arrival
| Time | 2026-04-20 13:59 |
|---|---|
| Airport | Westerland Sylt Airport (EDXW) |
| Time | Latitude | Longitude | Altitude | Speed | Heading |
|---|---|---|---|---|---|
| 2026-04-20 13:21 | 56.55367 | 9.16524 | 67 ft | 0 kts | 7° |
| 2026-04-20 13:22 | 56.55370 | 9.16524 | 68 ft | 4 kts | 356° |
| 2026-04-20 13:22 | 56.55387 | 9.16585 | 72 ft | 7 kts | 51° |
| 2026-04-20 13:23 | 56.55407 | 9.16661 | 64 ft | 6 kts | 90° |
| 2026-04-20 13:23 | 56.55390 | 9.16724 | 70 ft | 7 kts | 127° |
| 2026-04-20 13:23 | 56.55387 | 9.16733 | 70 ft | 0 kts | 127° |
| 2026-04-20 13:23 | 56.55385 | 9.16735 | 70 ft | 5 kts | 139° |
| 2026-04-20 13:25 | 56.55384 | 9.16738 | 70 ft | 0 kts | 133° |
| 2026-04-20 13:25 | 56.55374 | 9.16751 | 69 ft | 4 kts | 149° |
| 2026-04-20 13:25 | 56.55357 | 9.16776 | 68 ft | 2 kts | 131° |
| 2026-04-20 13:26 | 56.55353 | 9.16784 | 63 ft | 0 kts | 134° |
| 2026-04-20 13:26 | 56.55298 | 9.16858 | 65 ft | 20 kts | 139° |
| 2026-04-20 13:26 | 56.55180 | 9.17049 | 66 ft | 25 kts | 140° |
| 2026-04-20 13:26 | 56.55034 | 9.17281 | 72 ft | 30 kts | 137° |
| 2026-04-20 13:27 | 56.54859 | 9.17553 | 74 ft | 36 kts | 141° |
| 2026-04-20 13:27 | 56.54654 | 9.17876 | 74 ft | 32 kts | 136° |
| 2026-04-20 13:27 | 56.54636 | 9.17894 | 74 ft | 2 kts | 323° |
| 2026-04-20 13:27 | 56.54683 | 9.17821 | 73 ft | 37 kts | 319° |
| 2026-04-20 13:28 | 56.55105 | 9.17165 | 91 ft | 120 kts | 319° |
| 2026-04-20 13:28 | 56.55878 | 9.15986 | 419 ft | 166 kts | 320° |
| 2026-04-20 13:28 | 56.56897 | 9.14461 | 714 ft | 211 kts | 320° |
| 2026-04-20 13:28 | 56.58094 | 9.12640 | 1106 ft | 236 kts | 315° |
| 2026-04-20 13:29 | 56.58791 | 9.10058 | 1490 ft | 224 kts | 275° |
| 2026-04-20 13:29 | 56.58324 | 9.07594 | 2268 ft | 206 kts | 227° |
| 2026-04-20 13:29 | 56.57060 | 9.06308 | 3245 ft | 211 kts | 203° |
| 2026-04-20 13:29 | 56.55695 | 9.05324 | 4231 ft | 212 kts | 203° |
| 2026-04-20 13:30 | 56.54324 | 9.04320 | 5217 ft | 213 kts | 203° |
| 2026-04-20 13:30 | 56.52943 | 9.03373 | 6198 ft | 212 kts | 198° |
| 2026-04-20 13:30 | 56.51515 | 9.02700 | 7182 ft | 211 kts | 195° |
| 2026-04-20 13:30 | 56.50101 | 9.02066 | 8162 ft | 208 kts | 195° |
| 2026-04-20 13:31 | 56.48741 | 9.01463 | 9333 ft | 191 kts | 195° |
| 2026-04-20 13:31 | 56.47510 | 9.00921 | 10511 ft | 175 kts | 195° |
| 2026-04-20 13:31 | 56.46361 | 9.00420 | 11507 ft | 169 kts | 195° |
| 2026-04-20 13:31 | 56.45204 | 8.99910 | 12241 ft | 173 kts | 195° |
| 2026-04-20 13:32 | 56.44031 | 8.99395 | 12984 ft | 174 kts | 195° |
| 2026-04-20 13:32 | 56.42859 | 8.98878 | 13723 ft | 173 kts | 195° |
| 2026-04-20 13:32 | 56.41700 | 8.98373 | 14458 ft | 170 kts | 195° |
| 2026-04-20 13:32 | 56.40568 | 8.97879 | 15189 ft | 165 kts | 195° |
| 2026-04-20 13:33 | 56.39477 | 8.97408 | 15916 ft | 157 kts | 195° |
| 2026-04-20 13:33 | 56.38443 | 8.96966 | 16634 ft | 148 kts | 195° |
| 2026-04-20 13:33 | 56.37481 | 8.96557 | 17339 ft | 136 kts | 195° |
| 2026-04-20 13:33 | 56.36602 | 8.96189 | 17953 ft | 129 kts | 195° |
| 2026-04-20 13:34 | 56.35615 | 8.95764 | 18021 ft | 164 kts | 195° |
| 2026-04-20 13:34 | 56.34386 | 8.95226 | 18027 ft | 198 kts | 195° |
| 2026-04-20 13:34 | 56.32947 | 8.94588 | 18018 ft | 226 kts | 195° |
| 2026-04-20 13:34 | 56.31346 | 8.93869 | 18011 ft | 246 kts | 195° |
| 2026-04-20 13:35 | 56.29639 | 8.93101 | 18011 ft | 259 kts | 195° |
| 2026-04-20 13:35 | 56.27880 | 8.92311 | 18010 ft | 268 kts | 195° |
| 2026-04-20 13:35 | 56.26035 | 8.91480 | 18008 ft | 269 kts | 195° |
| 2026-04-20 13:35 | 56.24223 | 8.90663 | 18001 ft | 268 kts | 195° |
| 2026-04-20 13:36 | 56.22419 | 8.89856 | 18001 ft | 266 kts | 195° |
| 2026-04-20 13:36 | 56.20623 | 8.89052 | 18005 ft | 265 kts | 195° |
| 2026-04-20 13:36 | 56.18833 | 8.88272 | 18002 ft | 264 kts | 192° |
| 2026-04-20 13:36 | 56.17011 | 8.87826 | 17998 ft | 264 kts | 188° |
| 2026-04-20 13:37 | 56.15209 | 8.87272 | 17999 ft | 263 kts | 195° |
| 2026-04-20 13:37 | 56.13493 | 8.86168 | 17995 ft | 261 kts | 205° |
| 2026-04-20 13:37 | 56.11857 | 8.84768 | 18001 ft | 261 kts | 206° |
| 2026-04-20 13:37 | 56.10215 | 8.83488 | 17999 ft | 261 kts | 203° |
| 2026-04-20 13:38 | 56.08528 | 8.82283 | 17999 ft | 261 kts | 202° |
| 2026-04-20 13:38 | 56.06880 | 8.80949 | 17995 ft | 259 kts | 211° |
| 2026-04-20 13:38 | 56.05362 | 8.79213 | 17994 ft | 259 kts | 213° |
| 2026-04-20 13:38 | 56.03834 | 8.77515 | 17993 ft | 259 kts | 212° |
| 2026-04-20 13:39 | 56.02295 | 8.75834 | 17998 ft | 259 kts | 212° |
| 2026-04-20 13:39 | 56.00759 | 8.74138 | 17998 ft | 260 kts | 213° |
| 2026-04-20 13:39 | 55.99224 | 8.72438 | 17998 ft | 260 kts | 212° |
| 2026-04-20 13:39 | 55.97686 | 8.70740 | 17991 ft | 260 kts | 213° |
| 2026-04-20 13:40 | 55.96147 | 8.69044 | 17993 ft | 260 kts | 212° |
| 2026-04-20 13:40 | 55.94607 | 8.67347 | 17995 ft | 260 kts | 213° |
| 2026-04-20 13:40 | 55.93067 | 8.65652 | 17994 ft | 260 kts | 212° |
| 2026-04-20 13:40 | 55.91526 | 8.63961 | 17998 ft | 260 kts | 212° |
| 2026-04-20 13:41 | 55.89987 | 8.62269 | 17994 ft | 260 kts | 212° |
| 2026-04-20 13:41 | 55.88425 | 8.60560 | 17996 ft | 260 kts | 212° |
| 2026-04-20 13:41 | 55.86885 | 8.58869 | 17995 ft | 260 kts | 212° |
| 2026-04-20 13:41 | 55.85363 | 8.57203 | 17993 ft | 260 kts | 212° |
| 2026-04-20 13:42 | 55.83801 | 8.55499 | 17995 ft | 260 kts | 212° |
| 2026-04-20 13:42 | 55.80713 | 8.52126 | 17993 ft | 260 kts | 212° |
| 2026-04-20 13:42 | 55.79165 | 8.50434 | 17865 ft | 265 kts | 212° |
| 2026-04-20 13:43 | 55.77599 | 8.48727 | 17668 ft | 260 kts | 212° |
| 2026-04-20 13:43 | 55.76076 | 8.47071 | 17465 ft | 254 kts | 212° |
| 2026-04-20 13:43 | 55.74579 | 8.45440 | 17262 ft | 251 kts | 212° |
| 2026-04-20 13:43 | 55.73094 | 8.43829 | 17060 ft | 249 kts | 212° |
| 2026-04-20 13:44 | 55.71622 | 8.42230 | 16858 ft | 248 kts | 212° |
| 2026-04-20 13:44 | 55.70157 | 8.40640 | 16659 ft | 247 kts | 212° |
| 2026-04-20 13:44 | 55.68693 | 8.39054 | 16461 ft | 246 kts | 212° |
| 2026-04-20 13:44 | 55.67234 | 8.37475 | 16259 ft | 246 kts | 212° |
| 2026-04-20 13:45 | 55.65773 | 8.35896 | 16058 ft | 246 kts | 212° |
| 2026-04-20 13:45 | 55.64315 | 8.34320 | 15858 ft | 245 kts | 212° |
| 2026-04-20 13:45 | 55.62858 | 8.32744 | 15657 ft | 245 kts | 212° |
| 2026-04-20 13:45 | 55.61315 | 8.31490 | 15445 ft | 246 kts | 197° |
| 2026-04-20 13:46 | 55.59619 | 8.31118 | 15235 ft | 247 kts | 180° |
| 2026-04-20 13:46 | 55.57925 | 8.31652 | 15024 ft | 249 kts | 163° |
| 2026-04-20 13:46 | 55.56318 | 8.32785 | 14824 ft | 249 kts | 159° |
| 2026-04-20 13:46 | 55.54712 | 8.33912 | 14633 ft | 248 kts | 160° |
| 2026-04-20 13:47 | 55.53102 | 8.35025 | 14425 ft | 248 kts | 159° |
| 2026-04-20 13:47 | 55.51494 | 8.36145 | 14225 ft | 248 kts | 159° |
| 2026-04-20 13:47 | 55.49889 | 8.37264 | 14025 ft | 248 kts | 159° |
| 2026-04-20 13:47 | 55.48283 | 8.38382 | 13820 ft | 248 kts | 159° |
| 2026-04-20 13:48 | 55.46677 | 8.39497 | 13624 ft | 248 kts | 159° |
| 2026-04-20 13:48 | 55.45072 | 8.40616 | 13424 ft | 248 kts | 159° |
| 2026-04-20 13:48 | 55.43467 | 8.41728 | 13227 ft | 248 kts | 159° |
| 2026-04-20 13:48 | 55.41861 | 8.42842 | 13021 ft | 248 kts | 159° |
| 2026-04-20 13:49 | 55.40258 | 8.43951 | 12824 ft | 248 kts | 159° |
| 2026-04-20 13:49 | 55.38654 | 8.45062 | 12581 ft | 249 kts | 160° |
| 2026-04-20 13:49 | 55.37038 | 8.46179 | 12306 ft | 251 kts | 159° |
| 2026-04-20 13:49 | 55.35411 | 8.47304 | 12032 ft | 251 kts | 159° |
| 2026-04-20 13:50 | 55.33783 | 8.48424 | 11758 ft | 252 kts | 160° |
| 2026-04-20 13:50 | 55.32148 | 8.49547 | 11485 ft | 252 kts | 160° |
| 2026-04-20 13:50 | 55.30519 | 8.50673 | 11208 ft | 252 kts | 159° |
| 2026-04-20 13:50 | 55.28887 | 8.51797 | 10931 ft | 252 kts | 160° |
| 2026-04-20 13:51 | 55.27247 | 8.52923 | 10666 ft | 260 kts | 160° |
| 2026-04-20 13:51 | 55.25506 | 8.54113 | 10432 ft | 268 kts | 160° |
| 2026-04-20 13:51 | 55.23777 | 8.55302 | 10183 ft | 267 kts | 160° |
| 2026-04-20 13:51 | 55.22052 | 8.56485 | 9931 ft | 266 kts | 159° |
| 2026-04-20 13:52 | 55.20329 | 8.57668 | 9685 ft | 266 kts | 160° |
| 2026-04-20 13:52 | 55.18605 | 8.58847 | 9432 ft | 265 kts | 160° |
| 2026-04-20 13:52 | 55.16888 | 8.60019 | 9182 ft | 265 kts | 160° |
| 2026-04-20 13:52 | 55.15172 | 8.61172 | 8931 ft | 263 kts | 162° |
| 2026-04-20 13:53 | 55.13372 | 8.61683 | 8675 ft | 262 kts | 180° |
| 2026-04-20 13:53 | 55.11573 | 8.61293 | 8428 ft | 261 kts | 196° |
| 2026-04-20 13:53 | 55.09912 | 8.60056 | 8172 ft | 260 kts | 211° |
| 2026-04-20 13:53 | 55.08515 | 8.58073 | 7921 ft | 259 kts | 227° |
| 2026-04-20 13:54 | 55.07488 | 8.55519 | 7670 ft | 258 kts | 243° |
| 2026-04-20 13:54 | 55.06897 | 8.52582 | 7416 ft | 257 kts | 258° |
| 2026-04-20 13:54 | 55.06580 | 8.49523 | 7169 ft | 256 kts | 260° |
| 2026-04-20 13:54 | 55.06243 | 8.46478 | 6919 ft | 256 kts | 259° |
| 2026-04-20 13:55 | 55.05898 | 8.43434 | 6669 ft | 256 kts | 259° |
| 2026-04-20 13:55 | 55.05569 | 8.40391 | 6420 ft | 255 kts | 260° |
| 2026-04-20 13:55 | 55.05244 | 8.37398 | 6169 ft | 242 kts | 259° |
| 2026-04-20 13:55 | 55.04937 | 8.34622 | 5839 ft | 233 kts | 259° |
| 2026-04-20 13:56 | 55.04593 | 8.31893 | 5457 ft | 229 kts | 253° |
| 2026-04-20 13:56 | 55.03857 | 8.29450 | 5070 ft | 228 kts | 235° |
| 2026-04-20 13:56 | 55.02738 | 8.27501 | 4681 ft | 228 kts | 217° |
| 2026-04-20 13:56 | 55.01362 | 8.26143 | 4305 ft | 227 kts | 209° |
| 2026-04-20 13:57 | 54.99917 | 8.25126 | 3908 ft | 227 kts | 188° |
| 2026-04-20 13:57 | 54.98398 | 8.25603 | 3443 ft | 214 kts | 162° |
| 2026-04-20 13:57 | 54.97157 | 8.26861 | 2511 ft | 212 kts | 143° |
| 2026-04-20 13:57 | 54.96016 | 8.28340 | 1886 ft | 197 kts | 144° |
| 2026-04-20 13:58 | 54.94974 | 8.29616 | 1291 ft | 165 kts | 147° |
| 2026-04-20 13:58 | 54.94081 | 8.30641 | 831 ft | 140 kts | 147° |
| 2026-04-20 13:58 | 54.93401 | 8.31476 | 560 ft | 104 kts | 144° |
| 2026-04-20 13:58 | 54.92845 | 8.32177 | 322 ft | 94 kts | 147° |
| 2026-04-20 13:59 | 54.92332 | 8.32805 | 159 ft | 84 kts | 146° |
| 2026-04-20 13:59 | 54.91875 | 8.33369 | 55 ft | 78 kts | 146° |
| 2026-04-20 13:59 | 54.91477 | 8.33858 | 35 ft | 61 kts | 144° |
| 2026-04-20 13:59 | 54.91200 | 8.34200 | 39 ft | 37 kts | 144° |
| 2026-04-20 14:00 | 54.91011 | 8.34426 | 38 ft | 33 kts | 146° |
| 2026-04-20 14:00 | 54.90827 | 8.34656 | 32 ft | 32 kts | 147° |
| 2026-04-20 14:00 | 54.90664 | 8.34859 | 32 ft | 22 kts | 139° |
| 2026-04-20 14:00 | 54.90562 | 8.34876 | 35 ft | 15 kts | 224° |
| 2026-04-20 14:01 | 54.90526 | 8.34821 | 35 ft | 0 kts | 216° |
| 2026-04-20 14:01 | 54.90525 | 8.34820 | 35 ft | 1 kts | 216° |
| 2026-04-20 14:01 | 54.90495 | 8.34776 | 34 ft | 11 kts | 220° |
| 2026-04-20 14:02 | 54.90407 | 8.34642 | 32 ft | 21 kts | 224° |
| 2026-04-20 14:02 | 54.90314 | 8.34474 | 27 ft | 17 kts | 234° |
| 2026-04-20 14:02 | 54.90259 | 8.34309 | 24 ft | 14 kts | 248° |
| 2026-04-20 14:02 | 54.90239 | 8.34166 | 23 ft | 10 kts | 262° |
| 2026-04-20 14:03 | 54.90237 | 8.34058 | 23 ft | 9 kts | 271° |
| 2026-04-20 14:03 | 54.90240 | 8.33962 | 23 ft | 7 kts | 280° |
| 2026-04-20 14:03 | 54.90250 | 8.33851 | 23 ft | 12 kts | 277° |
| 2026-04-20 14:03 | 54.90269 | 8.33687 | 23 ft | 14 kts | 287° |
| 2026-04-20 14:04 | 54.90307 | 8.33539 | 23 ft | 13 kts | 304° |
| 2026-04-20 14:04 | 54.90358 | 8.33423 | 24 ft | 11 kts | 316° |
| 2026-04-20 14:04 | 54.90415 | 8.33342 | 24 ft | 10 kts | 324° |
| 2026-04-20 14:04 | 54.90481 | 8.33285 | 25 ft | 11 kts | 340° |
| 2026-04-20 14:05 | 54.90559 | 8.33252 | 26 ft | 12 kts | 353° |
| 2026-04-20 14:05 | 54.90639 | 8.33239 | 27 ft | 11 kts | 355° |
| 2026-04-20 14:05 | 54.90714 | 8.33228 | 29 ft | 10 kts | 358° |
| 2026-04-20 14:05 | 54.90782 | 8.33219 | 31 ft | 10 kts | 352° |
| 2026-04-20 14:06 | 54.90850 | 8.33191 | 32 ft | 11 kts | 343° |
| 2026-04-20 14:06 | 54.90925 | 8.33132 | 33 ft | 12 kts | 328° |
| 2026-04-20 14:06 | 54.90997 | 8.33035 | 34 ft | 14 kts | 314° |
| 2026-04-20 14:06 | 54.91043 | 8.32943 | 34 ft | 16 kts | 311° |
| 2026-04-20 14:07 | 54.91118 | 8.32793 | 34 ft | 18 kts | 314° |
| 2026-04-20 14:07 | 54.91193 | 8.32637 | 30 ft | 16 kts | 321° |
| 2026-04-20 14:07 | 54.91290 | 8.32517 | 25 ft | 15 kts | 297° |
| 2026-04-20 14:07 | 54.91299 | 8.32479 | 26 ft | 0 kts | 69° |